createdAt,value
2022-09-21T00:00:08.707Z,18.21
2022-09-21T00:00:20.416Z,18.21
2022-09-21T00:00:32.648Z,18.21
2022-09-21T00:00:44.536Z,18.21
2022-09-21T00:00:56.327Z,18.22
2022-09-21T00:01:09.655Z,18.22
2022-09-21T00:01:21.472Z,18.22
2022-09-21T00:01:34.004Z,18.21
2022-09-21T00:01:44.785Z,18.22
2022-09-21T00:01:55.580Z,18.21
2022-09-21T00:02:07.332Z,18.22
2022-09-21T00:02:19.063Z,18.22
2022-09-21T00:02:29.870Z,18.22
2022-09-21T00:02:42.339Z,18.25
2022-09-21T00:02:54.089Z,18.24
2022-09-21T00:03:04.909Z,18.24
2022-09-21T00:03:15.669Z,18.24
2022-09-21T00:03:28.609Z,18.24
2022-09-21T00:03:39.388Z,18.22
2022-09-21T00:03:51.502Z,18.22
2022-09-21T00:04:02.301Z,18.24
2022-09-21T00:04:13.048Z,18.24
2022-09-21T00:04:25.268Z,18.24
2022-09-21T00:04:36.077Z,18.22
2022-09-21T00:04:47.798Z,18.25
2022-09-21T00:04:59.539Z,18.21
2022-09-21T00:05:11.970Z,18.22
2022-09-21T00:05:24.418Z,18.21
2022-09-21T00:05:36.138Z,18.22
2022-09-21T00:05:48.359Z,18.19
2022-09-21T00:06:00.579Z,18.21
2022-09-21T00:06:13.030Z,18.19
2022-09-21T00:06:25.507Z,18.19
2022-09-21T00:06:36.249Z,18.19
2022-09-21T00:06:47.101Z,18.21
2022-09-21T00:06:58.129Z,18.22
2022-09-21T00:07:10.589Z,18.22
2022-09-21T00:07:23.549Z,18.21
2022-09-21T00:07:35.250Z,18.21
2022-09-21T00:07:47.036Z,18.19
2022-09-21T00:07:59.490Z,18.19
2022-09-21T00:08:11.970Z,18.19
2022-09-21T00:08:22.731Z,18.21
2022-09-21T00:08:33.500Z,18.19
2022-09-21T00:08:44.230Z,18.19
2022-09-21T00:08:54.979Z,18.19
2022-09-21T00:09:05.799Z,18.21
2022-09-21T00:09:19.031Z,18.19
2022-09-21T00:09:29.860Z,18.19
2022-09-21T00:09:41.624Z,18.19
2022-09-21T00:09:54.340Z,18.19
2022-09-21T00:10:05.180Z,18.19
2022-09-21T00:10:16.911Z,18.19
2022-09-21T00:10:27.690Z,18.18
2022-09-21T00:10:39.461Z,18.19
2022-09-21T00:10:50.230Z,18.19
2022-09-21T00:11:01.043Z,18.19
2022-09-21T00:11:13.502Z,18.19
2022-09-21T00:11:24.293Z,18.19
2022-09-21T00:11:36.052Z,18.19
2022-09-21T00:11:47.820Z,18.18
2022-09-21T00:11:58.651Z,18.18
2022-09-21T00:12:09.420Z,18.18
2022-09-21T00:12:21.134Z,18.19
2022-09-21T00:12:31.868Z,18.19
2022-09-21T00:12:43.631Z,18.17
2022-09-21T00:12:54.432Z,18.19
2022-09-21T00:13:05.252Z,18.18
2022-09-21T00:13:16.042Z,18.18
2022-09-21T00:13:26.833Z,18.18
2022-09-21T00:13:38.592Z,18.17
2022-09-21T00:13:49.462Z,18.17
2022-09-21T00:14:00.231Z,18.15
2022-09-21T00:14:13.432Z,18.17
2022-09-21T00:14:24.430Z,18.17
2022-09-21T00:14:36.862Z,18.17
2022-09-21T00:14:47.642Z,18.17
2022-09-21T00:14:59.363Z,18.18
2022-09-21T00:15:10.153Z,18.17
2022-09-21T00:15:20.942Z,18.17
2022-09-21T00:15:31.710Z,18.18
2022-09-21T00:15:42.481Z,18.17
2022-09-21T00:15:53.245Z,18.15
2022-09-21T00:16:04.002Z,18.17
2022-09-21T00:16:14.789Z,18.15
2022-09-21T00:16:25.653Z,18.17
2022-09-21T00:16:36.471Z,18.15
2022-09-21T00:16:47.276Z,18.13
2022-09-21T00:16:59.422Z,18.15
2022-09-21T00:17:10.231Z,18.15
2022-09-21T00:17:22.654Z,18.17
2022-09-21T00:17:33.433Z,18.17
2022-09-21T00:17:44.174Z,18.18
2022-09-21T00:17:55.893Z,18.18
2022-09-21T00:18:06.704Z,18.17
2022-09-21T00:18:17.544Z,18.17
2022-09-21T00:18:29.795Z,18.17
2022-09-21T00:18:40.562Z,18.17
2022-09-21T00:18:52.281Z,18.17
2022-09-21T00:19:04.003Z,18.17
2022-09-21T00:19:14.785Z,18.17
2022-09-21T00:19:25.574Z,18.17
2022-09-21T00:19:36.305Z,18.18
2022-09-21T00:19:48.044Z,18.15
2022-09-21T00:19:58.866Z,18.17
2022-09-21T00:20:11.333Z,18.17
2022-09-21T00:20:22.144Z,18.18
2022-09-21T00:20:32.893Z,18.18
2022-09-21T00:20:43.676Z,18.18
2022-09-21T00:20:54.445Z,18.18
2022-09-21T00:21:05.182Z,18.17
2022-09-21T00:21:15.925Z,18.15
2022-09-21T00:21:27.685Z,18.17
2022-09-21T00:21:38.475Z,18.18
2022-09-21T00:21:50.224Z,18.18
2022-09-21T00:22:01.993Z,18.18
2022-09-21T00:22:14.506Z,18.18
2022-09-21T00:22:28.004Z,18.18
2022-09-21T00:22:38.815Z,18.18
2022-09-21T00:22:49.587Z,18.18
2022-09-21T00:23:00.335Z,18.18
2022-09-21T00:23:12.025Z,18.19
2022-09-21T00:23:25.746Z,18.18
2022-09-21T00:23:36.543Z,18.17
2022-09-21T00:23:47.365Z,18.18
2022-09-21T00:23:58.385Z,18.17
2022-09-21T00:24:10.865Z,18.18
2022-09-21T00:24:22.611Z,18.17
2022-09-21T00:24:33.354Z,18.17
2022-09-21T00:24:46.556Z,18.17
2022-09-21T00:24:57.316Z,18.15
2022-09-21T00:25:08.096Z,18.15
2022-09-21T00:25:21.306Z,18.15
2022-09-21T00:25:32.066Z,18.13
2022-09-21T00:25:42.834Z,18.15
2022-09-21T00:25:53.586Z,18.15
2022-09-21T00:26:04.326Z,18.15
2022-09-21T00:26:15.094Z,18.13
2022-09-21T00:26:25.926Z,18.13
2022-09-21T00:26:36.697Z,18.13
2022-09-21T00:26:49.896Z,18.13
2022-09-21T00:27:00.646Z,18.13
2022-09-21T00:27:12.907Z,18.13
2022-09-21T00:27:25.408Z,18.13
2022-09-21T00:27:39.117Z,18.15
2022-09-21T00:27:51.826Z,18.13
2022-09-21T00:28:04.286Z,18.15
2022-09-21T00:28:15.027Z,18.13
2022-09-21T00:28:28.238Z,18.13
2022-09-21T00:28:40.738Z,18.13
2022-09-21T00:28:53.968Z,18.12
2022-09-21T00:29:04.718Z,18.12
2022-09-21T00:29:17.667Z,18.12
2022-09-21T00:29:29.888Z,18.09
2022-09-21T00:29:42.847Z,18.10
2022-09-21T00:29:53.579Z,18.09
2022-09-21T00:30:05.298Z,18.10
2022-09-21T00:30:16.036Z,18.10
2022-09-21T00:30:28.268Z,18.12
2022-09-21T00:30:41.468Z,18.12
2022-09-21T00:30:53.919Z,18.13
2022-09-21T00:31:07.127Z,18.12
2022-09-21T00:31:19.425Z,18.13
2022-09-21T00:31:31.234Z,18.12
2022-09-21T00:31:42.034Z,18.13
2022-09-21T00:31:52.796Z,18.12
2022-09-21T00:32:06.525Z,18.13
2022-09-21T00:32:19.758Z,18.12
2022-09-21T00:32:32.893Z,18.12
2022-09-21T00:32:45.378Z,18.12
2022-09-21T00:32:58.590Z,18.10
2022-09-21T00:33:09.369Z,18.13
2022-09-21T00:33:20.147Z,18.12
2022-09-21T00:33:30.891Z,18.12
2022-09-21T00:33:42.629Z,18.12
2022-09-21T00:33:54.351Z,18.12
2022-09-21T00:34:06.102Z,18.12
2022-09-21T00:34:16.906Z,18.12
2022-09-21T00:34:29.829Z,18.10
2022-09-21T00:34:41.590Z,18.12
2022-09-21T00:34:53.338Z,18.10
2022-09-21T00:35:04.151Z,18.12
2022-09-21T00:35:15.891Z,18.12
2022-09-21T00:35:26.639Z,18.13
2022-09-21T00:35:38.350Z,18.10
2022-09-21T00:35:50.290Z,18.12
2022-09-21T00:36:02.720Z,18.12
2022-09-21T00:36:13.509Z,18.12
2022-09-21T00:36:24.328Z,18.12
2022-09-21T00:36:35.093Z,18.12
2022-09-21T00:36:45.899Z,18.12
2022-09-21T00:36:56.710Z,18.12
2022-09-21T00:37:08.421Z,18.12
2022-09-21T00:37:19.201Z,18.10
2022-09-21T00:37:29.960Z,18.10
2022-09-21T00:37:41.650Z,18.10
2022-09-21T00:37:54.110Z,18.12
2022-09-21T00:38:04.889Z,18.10
2022-09-21T00:38:15.930Z,18.10
2022-09-21T00:38:27.671Z,18.13
2022-09-21T00:38:38.519Z,18.12
2022-09-21T00:38:49.302Z,18.13
2022-09-21T00:39:00.127Z,18.13
2022-09-21T00:39:12.548Z,18.13
2022-09-21T00:39:23.341Z,18.13
2022-09-21T00:39:34.080Z,18.12
2022-09-21T00:39:45.772Z,18.12
2022-09-21T00:39:56.551Z,18.12
2022-09-21T00:40:07.407Z,18.12
2022-09-21T00:40:19.157Z,18.10
2022-09-21T00:40:30.928Z,18.10
2022-09-21T00:40:43.422Z,18.12
2022-09-21T00:40:54.171Z,18.09
2022-09-21T00:41:05.901Z,18.09
2022-09-21T00:41:17.673Z,18.09
2022-09-21T00:41:28.489Z,18.09
2022-09-21T00:41:40.970Z,18.09
2022-09-21T00:41:51.722Z,18.09
2022-09-21T00:42:02.472Z,18.10
2022-09-21T00:42:14.182Z,18.12
2022-09-21T00:42:26.633Z,18.10
2022-09-21T00:42:38.400Z,18.10
2022-09-21T00:42:49.161Z,18.12
2022-09-21T00:42:59.983Z,18.13
2022-09-21T00:43:11.752Z,18.12
2022-09-21T00:43:22.554Z,18.12
2022-09-21T00:43:33.333Z,18.10
2022-09-21T00:43:45.762Z,18.09
2022-09-21T00:43:57.972Z,18.10
2022-09-21T00:44:10.202Z,18.10
2022-09-21T00:44:22.622Z,18.12
2022-09-21T00:44:35.116Z,18.10
2022-09-21T00:44:48.823Z,18.10
2022-09-21T00:44:59.582Z,18.10
2022-09-21T00:45:10.342Z,18.12
2022-09-21T00:45:21.156Z,18.12
2022-09-21T00:45:31.950Z,18.10
2022-09-21T00:45:43.709Z,18.12
2022-09-21T00:45:56.201Z,18.10
2022-09-21T00:46:07.000Z,18.10
2022-09-21T00:46:17.773Z,18.10
2022-09-21T00:46:30.213Z,18.10
2022-09-21T00:46:41.985Z,18.10
2022-09-21T00:46:54.445Z,18.10
2022-09-21T00:47:05.183Z,18.10
2022-09-21T00:47:15.933Z,18.09
2022-09-21T00:47:28.385Z,18.07
2022-09-21T00:47:39.185Z,18.09
2022-09-21T00:47:50.884Z,18.09
2022-09-21T00:48:02.596Z,18.07
2022-09-21T00:48:13.373Z,18.09
2022-09-21T00:48:25.625Z,18.07
2022-09-21T00:48:36.402Z,18.07
2022-09-21T00:48:49.604Z,18.07
2022-09-21T00:49:00.384Z,18.09
2022-09-21T00:49:12.865Z,18.09
2022-09-21T00:49:25.826Z,18.10
2022-09-21T00:49:36.557Z,18.10
2022-09-21T00:49:48.325Z,18.12
2022-09-21T00:49:59.104Z,18.12
2022-09-21T00:50:11.556Z,18.13
2022-09-21T00:50:23.279Z,18.12
2022-09-21T00:50:34.004Z,18.12
2022-09-21T00:50:45.732Z,18.12
2022-09-21T00:50:56.495Z,18.12
2022-09-21T00:51:08.725Z,18.10
2022-09-21T00:51:19.483Z,18.10
2022-09-21T00:51:31.976Z,18.12
2022-09-21T00:51:44.933Z,18.12
2022-09-21T00:51:59.176Z,18.12
2022-09-21T00:52:09.935Z,18.12
2022-09-21T00:52:21.645Z,18.10
2022-09-21T00:52:32.426Z,18.10
2022-09-21T00:52:44.906Z,18.12
2022-09-21T00:52:58.111Z,18.10
2022-09-21T00:53:09.847Z,18.12
2022-09-21T00:53:22.065Z,18.12
2022-09-21T00:53:33.839Z,18.12
2022-09-21T00:53:46.306Z,18.12
2022-09-21T00:53:57.076Z,18.10
2022-09-21T00:54:09.548Z,18.10
2022-09-21T00:54:20.577Z,18.10
2022-09-21T00:54:31.326Z,18.09
2022-09-21T00:54:42.065Z,18.10
2022-09-21T00:54:55.267Z,18.09
2022-09-21T00:55:07.747Z,18.09
2022-09-21T00:55:20.226Z,18.07
2022-09-21T00:55:31.977Z,18.07
2022-09-21T00:55:44.687Z,18.07
2022-09-21T00:55:57.157Z,18.06
2022-09-21T00:56:10.367Z,18.06
2022-09-21T00:56:22.127Z,18.07
2022-09-21T00:56:33.888Z,18.07
2022-09-21T00:56:44.668Z,18.07
2022-09-21T00:56:57.609Z,18.07
2022-09-21T00:57:08.366Z,18.06
2022-09-21T00:57:20.261Z,18.06
2022-09-21T00:57:32.737Z,18.06
2022-09-21T00:57:43.517Z,18.06
2022-09-21T00:57:55.259Z,18.06
2022-09-21T00:58:07.017Z,18.04
2022-09-21T00:58:17.767Z,18.06
2022-09-21T00:58:30.428Z,18.06
2022-09-21T00:58:41.228Z,18.06
2022-09-21T00:58:51.970Z,18.06
2022-09-21T00:59:03.708Z,18.06
2022-09-21T00:59:16.905Z,18.07
2022-09-21T00:59:30.514Z,18.07
2022-09-21T00:59:43.007Z,18.07
2022-09-21T00:59:55.938Z,18.06
2022-09-21T01:00:06.759Z,18.04
2022-09-21T01:00:18.458Z,18.04
2022-09-21T01:00:31.668Z,18.04
2022-09-21T01:00:42.505Z,18.04
2022-09-21T01:00:53.266Z,18.06
2022-09-21T01:01:04.054Z,18.06
2022-09-21T01:01:16.609Z,18.06
2022-09-21T01:01:27.575Z,18.07
2022-09-21T01:01:39.278Z,18.07
2022-09-21T01:01:51.092Z,18.07
2022-09-21T01:02:03.586Z,18.07
2022-09-21T01:02:15.863Z,18.06
2022-09-21T01:02:26.749Z,18.06
2022-09-21T01:02:37.528Z,18.07
2022-09-21T01:02:48.317Z,18.06
2022-09-21T01:02:59.059Z,18.04
2022-09-21T01:03:09.851Z,18.04
2022-09-21T01:03:22.071Z,18.03
2022-09-21T01:03:32.859Z,18.04
2022-09-21T01:03:45.316Z,18.03
2022-09-21T01:03:56.050Z,18.03
2022-09-21T01:04:07.785Z,18.02
2022-09-21T01:04:19.461Z,18.03
2022-09-21T01:04:30.230Z,18.02
2022-09-21T01:04:42.693Z,18.00
2022-09-21T01:04:54.412Z,18.02
2022-09-21T01:05:05.240Z,18.02
2022-09-21T01:05:16.000Z,18.02
2022-09-21T01:05:26.770Z,18.02
2022-09-21T01:05:37.570Z,18.03
2022-09-21T01:05:48.320Z,18.02
2022-09-21T01:05:59.081Z,18.03
2022-09-21T01:06:09.870Z,18.03
2022-09-21T01:06:20.628Z,18.02
2022-09-21T01:06:31.379Z,18.00
2022-09-21T01:06:42.133Z,18.00
2022-09-21T01:06:53.873Z,18.00
2022-09-21T01:07:04.630Z,18.02
2022-09-21T01:07:16.350Z,18.04
2022-09-21T01:07:27.110Z,18.03
2022-09-21T01:07:39.551Z,18.02
2022-09-21T01:07:51.360Z,18.02
2022-09-21T01:08:02.214Z,18.03
2022-09-21T01:08:12.972Z,18.03
2022-09-21T01:08:23.741Z,18.04
2022-09-21T01:08:34.519Z,18.04
2022-09-21T01:08:46.725Z,18.03
2022-09-21T01:08:59.461Z,18.04
2022-09-21T01:09:10.245Z,18.06
2022-09-21T01:09:22.691Z,18.06
2022-09-21T01:09:34.401Z,18.06
2022-09-21T01:09:46.144Z,18.06
2022-09-21T01:09:56.904Z,18.06
2022-09-21T01:10:08.662Z,18.07
2022-09-21T01:10:20.372Z,18.06
2022-09-21T01:10:32.601Z,18.07
2022-09-21T01:10:43.321Z,18.07
2022-09-21T01:10:55.042Z,18.07
2022-09-21T01:11:05.843Z,18.06
2022-09-21T01:11:18.304Z,18.06
2022-09-21T01:11:29.083Z,18.06
2022-09-21T01:11:39.850Z,18.07
2022-09-21T01:11:52.052Z,18.06
2022-09-21T01:12:05.782Z,18.06
2022-09-21T01:12:16.553Z,18.07
2022-09-21T01:12:29.022Z,18.06
2022-09-21T01:12:41.952Z,18.06
2022-09-21T01:12:54.434Z,18.04
2022-09-21T01:13:07.586Z,18.04
2022-09-21T01:13:20.063Z,18.04
2022-09-21T01:13:31.783Z,18.03
2022-09-21T01:13:43.984Z,18.03
2022-09-21T01:13:54.772Z,18.06
2022-09-21T01:14:07.776Z,18.04
2022-09-21T01:14:19.653Z,18.04
2022-09-21T01:14:30.423Z,18.04
2022-09-21T01:14:41.222Z,18.06
2022-09-21T01:14:51.983Z,18.06
2022-09-21T01:15:04.704Z,18.04
2022-09-21T01:15:16.925Z,18.04
2022-09-21T01:15:27.674Z,18.06
2022-09-21T01:15:39.623Z,18.04
2022-09-21T01:15:51.314Z,18.04
2022-09-21T01:16:03.067Z,18.06
2022-09-21T01:16:14.803Z,18.07
2022-09-21T01:16:27.268Z,18.06
2022-09-21T01:16:38.086Z,18.06
2022-09-21T01:16:51.293Z,18.04
2022-09-21T01:17:03.085Z,18.04
2022-09-21T01:17:15.296Z,18.06
2022-09-21T01:17:26.074Z,18.04
2022-09-21T01:17:38.324Z,18.06
2022-09-21T01:17:49.144Z,18.04
2022-09-21T01:18:01.845Z,18.03
2022-09-21T01:18:14.080Z,18.03
2022-09-21T01:18:26.816Z,18.03
2022-09-21T01:18:37.605Z,18.03
2022-09-21T01:18:50.044Z,18.03
2022-09-21T01:19:01.795Z,18.03
2022-09-21T01:19:14.514Z,18.03
2022-09-21T01:19:25.245Z,18.03
2022-09-21T01:19:36.945Z,18.02
2022-09-21T01:19:48.936Z,18.02
2022-09-21T01:19:59.697Z,18.02
2022-09-21T01:20:11.415Z,18.03
2022-09-21T01:20:23.914Z,18.02
2022-09-21T01:20:36.386Z,18.00
2022-09-21T01:20:47.197Z,17.99
2022-09-21T01:20:58.819Z,17.97
2022-09-21T01:21:11.268Z,17.97
2022-09-21T01:21:22.057Z,17.97
2022-09-21T01:21:35.305Z,17.99
2022-09-21T01:21:48.025Z,18.00
2022-09-21T01:21:58.786Z,18.00
2022-09-21T01:22:10.496Z,18.00
2022-09-21T01:22:21.316Z,18.00
2022-09-21T01:22:32.088Z,17.99
2022-09-21T01:22:44.546Z,18.00
2022-09-21T01:22:56.965Z,18.00
2022-09-21T01:23:07.705Z,17.99
2022-09-21T01:23:19.407Z,18.00
2022-09-21T01:23:31.166Z,18.00
2022-09-21T01:23:42.897Z,18.00
2022-09-21T01:23:53.706Z,18.00
2022-09-21T01:24:05.485Z,18.00
2022-09-21T01:24:17.226Z,18.02
2022-09-21T01:24:28.922Z,18.02
2022-09-21T01:24:41.376Z,18.03
2022-09-21T01:24:52.127Z,18.03
2022-09-21T01:25:03.850Z,18.02
2022-09-21T01:25:14.596Z,18.00
2022-09-21T01:25:26.339Z,18.00
2022-09-21T01:25:38.028Z,18.02
2022-09-21T01:25:48.776Z,18.02
2022-09-21T01:25:59.517Z,18.02
2022-09-21T01:26:10.277Z,18.02
2022-09-21T01:26:22.038Z,18.00
2022-09-21T01:26:32.796Z,18.02
2022-09-21T01:26:44.499Z,18.02
2022-09-21T01:26:55.239Z,18.00
2022-09-21T01:27:06.037Z,18.02
2022-09-21T01:27:16.789Z,18.00
2022-09-21T01:27:28.531Z,18.02
2022-09-21T01:27:40.328Z,18.00
2022-09-21T01:27:51.126Z,17.99
2022-09-21T01:28:04.328Z,18.00
2022-09-21T01:28:15.088Z,18.00
2022-09-21T01:28:27.558Z,18.00
2022-09-21T01:28:38.321Z,18.02
2022-09-21T01:28:50.759Z,18.03
2022-09-21T01:29:03.299Z,18.02
2022-09-21T01:29:14.089Z,18.03
2022-09-21T01:29:24.847Z,18.02
2022-09-21T01:29:37.798Z,18.00
2022-09-21T01:29:48.549Z,18.00
2022-09-21T01:29:59.279Z,18.00
2022-09-21T01:30:11.748Z,17.99
2022-09-21T01:30:22.482Z,17.97
2022-09-21T01:30:35.428Z,17.99
2022-09-21T01:30:49.210Z,17.97
2022-09-21T01:31:01.699Z,17.95
2022-09-21T01:31:14.956Z,17.95
2022-09-21T01:31:27.271Z,17.95
2022-09-21T01:31:38.058Z,17.97
2022-09-21T01:31:50.557Z,17.99
2022-09-21T01:32:01.279Z,17.99
2022-09-21T01:32:12.061Z,17.99
2022-09-21T01:32:24.515Z,17.99
2022-09-21T01:32:36.219Z,17.99
2022-09-21T01:32:48.930Z,17.99
2022-09-21T01:33:00.671Z,17.99
2022-09-21T01:33:13.150Z,17.99
2022-09-21T01:33:25.639Z,17.99
2022-09-21T01:33:38.081Z,17.99
2022-09-21T01:33:50.810Z,17.99
2022-09-21T01:34:03.746Z,17.99
2022-09-21T01:34:14.530Z,18.00
2022-09-21T01:34:26.262Z,17.99
2022-09-21T01:34:37.012Z,17.99
2022-09-21T01:34:47.772Z,18.00
2022-09-21T01:34:58.542Z,18.00
2022-09-21T01:35:09.301Z,17.99
2022-09-21T01:35:21.731Z,17.97
2022-09-21T01:35:34.210Z,17.99
2022-09-21T01:35:46.631Z,17.97
2022-09-21T01:35:57.390Z,17.95
2022-09-21T01:36:10.592Z,17.95
2022-09-21T01:36:22.352Z,17.95
2022-09-21T01:36:34.061Z,17.95
2022-09-21T01:36:44.810Z,17.97
2022-09-21T01:36:56.534Z,17.95
2022-09-21T01:37:08.361Z,17.97
2022-09-21T01:37:20.091Z,17.95
2022-09-21T01:37:32.542Z,17.95
2022-09-21T01:37:44.261Z,17.94
2022-09-21T01:37:56.503Z,17.97
2022-09-21T01:38:07.233Z,17.94
2022-09-21T01:38:19.654Z,17.94
2022-09-21T01:38:31.362Z,17.94
2022-09-21T01:38:43.585Z,17.92
2022-09-21T01:38:57.302Z,17.92
2022-09-21T01:39:09.012Z,17.94
2022-09-21T01:39:21.253Z,17.94
2022-09-21T01:39:33.833Z,17.95
2022-09-21T01:39:44.592Z,17.95
2022-09-21T01:39:55.332Z,17.94
2022-09-21T01:40:06.174Z,17.95
2022-09-21T01:40:16.980Z,17.95
2022-09-21T01:40:30.884Z,17.97
2022-09-21T01:40:45.095Z,17.97
2022-09-21T01:40:55.820Z,17.97
2022-09-21T01:41:08.260Z,17.95
2022-09-21T01:41:20.673Z,17.99
2022-09-21T01:41:32.906Z,17.99
2022-09-21T01:41:43.704Z,17.99
2022-09-21T01:41:54.512Z,17.97
2022-09-21T01:42:07.463Z,17.97
2022-09-21T01:42:18.213Z,17.99
2022-09-21T01:42:29.022Z,17.99
2022-09-21T01:42:41.264Z,17.99
2022-09-21T01:42:53.734Z,17.99
2022-09-21T01:43:04.495Z,17.99
2022-09-21T01:43:15.243Z,17.99
2022-09-21T01:43:27.994Z,17.95
2022-09-21T01:43:43.205Z,17.97
2022-09-21T01:43:54.969Z,17.97
2022-09-21T01:44:05.724Z,17.99
2022-09-21T01:44:17.443Z,17.99
2022-09-21T01:44:28.205Z,17.97
2022-09-21T01:44:39.954Z,17.95
2022-09-21T01:44:50.755Z,17.99
2022-09-21T01:45:03.204Z,17.97
2022-09-21T01:45:13.983Z,17.97
2022-09-21T01:45:25.748Z,17.97
2022-09-21T01:45:36.548Z,17.97
2022-09-21T01:45:49.274Z,17.97
2022-09-21T01:46:00.060Z,17.97
2022-09-21T01:46:11.754Z,17.95
2022-09-21T01:46:24.194Z,17.97
2022-09-21T01:46:35.984Z,17.95
2022-09-21T01:46:48.415Z,17.97
2022-09-21T01:47:00.865Z,17.97
2022-09-21T01:47:14.138Z,17.97
2022-09-21T01:47:25.835Z,17.95
2022-09-21T01:47:37.575Z,17.95
2022-09-21T01:47:48.334Z,17.95
2022-09-21T01:48:00.764Z,17.94
2022-09-21T01:48:12.985Z,17.92
2022-09-21T01:48:24.708Z,17.94
2022-09-21T01:48:35.730Z,17.94
2022-09-21T01:48:47.439Z,17.94
2022-09-21T01:48:59.156Z,17.95
2022-09-21T01:49:11.617Z,17.95
2022-09-21T01:49:22.405Z,17.97
2022-09-21T01:49:33.146Z,17.97
2022-09-21T01:49:44.906Z,17.95
2022-09-21T01:49:55.668Z,17.95
2022-09-21T01:50:06.585Z,17.95
2022-09-21T01:50:19.038Z,17.95
2022-09-21T01:50:30.746Z,17.97
2022-09-21T01:50:44.197Z,17.94
2022-09-21T01:50:55.957Z,17.97
2022-09-21T01:51:06.688Z,17.97
2022-09-21T01:51:17.446Z,17.97
2022-09-21T01:51:29.895Z,17.95
2022-09-21T01:51:40.667Z,17.95
2022-09-21T01:51:53.087Z,17.94
2022-09-21T01:52:03.825Z,17.95
2022-09-21T01:52:14.605Z,17.94
2022-09-21T01:52:27.814Z,17.95
2022-09-21T01:52:40.259Z,17.95
2022-09-21T01:52:52.526Z,17.94
2022-09-21T01:53:04.987Z,17.95
2022-09-21T01:53:16.686Z,17.97
2022-09-21T01:53:28.438Z,17.95
2022-09-21T01:53:39.195Z,17.95
2022-09-21T01:53:51.619Z,17.95
2022-09-21T01:54:04.859Z,17.95
2022-09-21T01:54:17.307Z,17.97
2022-09-21T01:54:29.049Z,17.95
2022-09-21T01:54:39.819Z,17.94
2022-09-21T01:54:50.608Z,17.94
2022-09-21T01:55:03.077Z,17.94
2022-09-21T01:55:15.555Z,17.95
2022-09-21T01:55:26.356Z,17.94
2022-09-21T01:55:38.157Z,17.94
2022-09-21T01:55:48.900Z,17.94
2022-09-21T01:56:01.314Z,17.92
2022-09-21T01:56:14.529Z,17.92
2022-09-21T01:56:26.758Z,17.92
2022-09-21T01:56:38.500Z,17.92
2022-09-21T01:56:50.948Z,17.91
2022-09-21T01:57:02.679Z,17.91
2022-09-21T01:57:15.140Z,17.91
2022-09-21T01:57:27.850Z,17.92
2022-09-21T01:57:40.798Z,17.91
2022-09-21T01:57:52.540Z,17.92
2022-09-21T01:58:04.958Z,17.92
2022-09-21T01:58:15.708Z,17.94
2022-09-21T01:58:26.449Z,17.94
2022-09-21T01:58:38.880Z,17.94
2022-09-21T01:58:49.618Z,17.94
2022-09-21T01:59:01.319Z,17.95
2022-09-21T01:59:12.100Z,17.95
2022-09-21T01:59:25.820Z,17.95
2022-09-21T01:59:38.570Z,17.95
2022-09-21T01:59:49.309Z,17.94
2022-09-21T02:00:00.049Z,17.92
2022-09-21T02:00:13.029Z,17.92
2022-09-21T02:00:23.819Z,17.94
2022-09-21T02:00:34.614Z,17.91
2022-09-21T02:00:46.977Z,17.92
2022-09-21T02:00:58.744Z,17.89
2022-09-21T02:01:10.456Z,17.91
2022-09-21T02:01:22.881Z,17.89
2022-09-21T02:01:33.677Z,17.89
2022-09-21T02:01:45.372Z,17.91
2022-09-21T02:01:57.106Z,17.91
2022-09-21T02:02:10.367Z,17.89
2022-09-21T02:02:22.142Z,17.89
2022-09-21T02:02:34.591Z,17.89
2022-09-21T02:02:46.799Z,17.91
2022-09-21T02:02:58.590Z,17.91
2022-09-21T02:03:10.340Z,17.89
2022-09-21T02:03:21.121Z,17.92
2022-09-21T02:03:34.080Z,17.92
2022-09-21T02:03:44.842Z,17.92
2022-09-21T02:03:57.041Z,17.91
2022-09-21T02:04:08.879Z,17.91
2022-09-21T02:04:20.582Z,17.94
2022-09-21T02:04:31.362Z,17.92
2022-09-21T02:04:43.561Z,17.92
2022-09-21T02:04:56.002Z,17.92
2022-09-21T02:05:07.711Z,17.92
2022-09-21T02:05:20.162Z,17.94
2022-09-21T02:05:31.885Z,17.92
2022-09-21T02:05:42.681Z,17.92
2022-09-21T02:05:54.643Z,17.92
2022-09-21T02:06:06.401Z,17.91
2022-09-21T02:06:17.162Z,17.91
2022-09-21T02:06:27.922Z,17.91
2022-09-21T02:06:39.641Z,17.89
2022-09-21T02:06:51.361Z,17.89
2022-09-21T02:07:02.121Z,17.89
2022-09-21T02:07:13.843Z,17.88
2022-09-21T02:07:26.332Z,17.89
2022-09-21T02:07:39.042Z,17.89
2022-09-21T02:07:51.490Z,17.91
2022-09-21T02:08:03.212Z,17.91
2022-09-21T02:08:13.972Z,17.91
2022-09-21T02:08:24.742Z,17.91
2022-09-21T02:08:35.521Z,17.91
2022-09-21T02:08:46.274Z,17.89
2022-09-21T02:08:57.051Z,17.92
2022-09-21T02:09:07.851Z,17.91
2022-09-21T02:09:20.971Z,17.91
2022-09-21T02:09:32.694Z,17.91
2022-09-21T02:09:43.523Z,17.89
2022-09-21T02:09:56.744Z,17.91
2022-09-21T02:10:08.443Z,17.91
2022-09-21T02:10:20.169Z,17.91
2022-09-21T02:10:32.612Z,17.91
2022-09-21T02:10:45.324Z,17.89
2022-09-21T02:10:57.053Z,17.89
2022-09-21T02:11:07.905Z,17.89
2022-09-21T02:11:19.693Z,17.91
2022-09-21T02:11:30.453Z,17.91
2022-09-21T02:11:42.184Z,17.89
2022-09-21T02:11:52.923Z,17.89
2022-09-21T02:12:04.664Z,17.88
2022-09-21T02:12:18.882Z,17.89
2022-09-21T02:12:32.543Z,17.91
2022-09-21T02:12:44.744Z,17.91
2022-09-21T02:12:55.494Z,17.91
2022-09-21T02:13:07.944Z,17.91
2022-09-21T02:13:20.395Z,17.91
2022-09-21T02:13:32.124Z,17.91
2022-09-21T02:13:42.924Z,17.92
2022-09-21T02:13:54.748Z,17.91
2022-09-21T02:14:07.208Z,17.91
2022-09-21T02:14:19.144Z,17.89
2022-09-21T02:14:32.134Z,17.91
2022-09-21T02:14:44.394Z,17.91
2022-09-21T02:14:55.164Z,17.91
2022-09-21T02:15:07.587Z,17.89
2022-09-21T02:15:18.344Z,17.91
2022-09-21T02:15:30.076Z,17.91
2022-09-21T02:15:41.815Z,17.92
2022-09-21T02:15:55.050Z,17.91
2022-09-21T02:16:06.846Z,17.92
2022-09-21T02:16:18.611Z,17.92
2022-09-21T02:16:31.065Z,17.92
2022-09-21T02:16:43.585Z,17.92
2022-09-21T02:16:54.346Z,17.92
2022-09-21T02:17:07.556Z,17.94
2022-09-21T02:17:18.337Z,17.92
2022-09-21T02:17:32.076Z,17.91
2022-09-21T02:17:44.757Z,17.89
2022-09-21T02:17:55.537Z,17.89
2022-09-21T02:18:06.276Z,17.89
2022-09-21T02:18:17.064Z,17.87
2022-09-21T02:18:27.814Z,17.87
2022-09-21T02:18:38.556Z,17.85
2022-09-21T02:18:52.267Z,17.85
2022-09-21T02:19:05.186Z,17.85
2022-09-21T02:19:17.668Z,17.85
2022-09-21T02:19:29.378Z,17.87
2022-09-21T02:19:40.140Z,17.85
2022-09-21T02:19:51.887Z,17.85
2022-09-21T02:20:04.325Z,17.87
2022-09-21T02:20:16.548Z,17.85
2022-09-21T02:20:28.995Z,17.85
2022-09-21T02:20:39.776Z,17.85
2022-09-21T02:20:52.026Z,17.87
2022-09-21T02:21:04.447Z,17.87
2022-09-21T02:21:15.177Z,17.85
2022-09-21T02:21:26.909Z,17.87
2022-09-21T02:21:38.598Z,17.85
2022-09-21T02:21:50.312Z,17.85
2022-09-21T02:22:03.038Z,17.85
2022-09-21T02:22:13.801Z,17.85
2022-09-21T02:22:26.208Z,17.85
2022-09-21T02:22:38.916Z,17.84
2022-09-21T02:22:51.847Z,17.84
2022-09-21T02:23:02.617Z,17.85
2022-09-21T02:23:13.357Z,17.84
2022-09-21T02:23:25.328Z,17.84
2022-09-21T02:23:36.087Z,17.82
2022-09-21T02:23:47.788Z,17.82
2022-09-21T02:23:59.548Z,17.84
2022-09-21T02:24:11.778Z,17.84
2022-09-21T02:24:24.258Z,17.82
2022-09-21T02:24:36.742Z,17.81
2022-09-21T02:24:49.698Z,17.81
2022-09-21T02:25:01.406Z,17.79
2022-09-21T02:25:13.888Z,17.79
2022-09-21T02:25:24.629Z,17.82
2022-09-21T02:25:35.358Z,17.81
2022-09-21T02:25:46.142Z,17.79
2022-09-21T02:25:56.938Z,17.84
2022-09-21T02:26:09.137Z,17.81
2022-09-21T02:26:19.899Z,17.82
2022-09-21T02:26:32.356Z,17.84
2022-09-21T02:26:44.060Z,17.85
2022-09-21T02:26:55.770Z,17.85
2022-09-21T02:27:07.540Z,17.85
2022-09-21T02:27:19.257Z,17.85
2022-09-21T02:27:31.749Z,17.88
2022-09-21T02:27:42.480Z,17.87
2022-09-21T02:27:54.192Z,17.87
2022-09-21T02:28:05.918Z,17.88
2022-09-21T02:28:18.119Z,17.88
2022-09-21T02:28:31.089Z,17.88
2022-09-21T02:28:44.030Z,17.87
2022-09-21T02:28:54.810Z,17.89
2022-09-21T02:29:07.229Z,17.87
2022-09-21T02:29:18.091Z,17.88
2022-09-21T02:29:29.861Z,17.88
2022-09-21T02:29:40.588Z,17.88
2022-09-21T02:29:51.328Z,17.88
2022-09-21T02:30:02.091Z,17.88
2022-09-21T02:30:14.530Z,17.87
2022-09-21T02:30:26.979Z,17.88